Time;durP1;ratioP1;P1;durP2;ratioP2;P2;SDS_P1;SDS_P2;PMS_P1;PMS_P2;Temp;Humidity;BMP_temperature;BMP_pressure;BME280_temperature;BME280_humidity;BME280_pressure;Samples;Min_cycle;Max_cycle;Signal;HPM_P1;HPM_P2
2022/06/22 00:01:17;;;;;;;2.83;2.25;;;24.10;97.50;;;;;;5134640;27;20076;-57
2022/06/22 00:03:54;;;;;;;3.95;2.20;;;24.10;97.50;;;;;;5134773;27;20115;-58
2022/06/22 00:06:43;;;;;;;5.78;3.05;;;24.20;97.50;;;;;;5134959;27;20030;-53
2022/06/22 00:09:30;;;;;;;2.45;2.22;;;24.40;97.10;;;;;;5134790;27;20050;-58
2022/06/22 00:11:57;;;;;;;3.20;2.38;;;24.30;97.50;;;;;;5134520;27;20034;-55
2022/06/22 00:14:41;;;;;;;4.15;2.45;;;24.30;97.50;;;;;;5134565;27;20041;-58
2022/06/22 00:17:26;;;;;;;2.53;1.83;;;24.20;97.20;;;;;;5134866;27;20063;-56
2022/06/22 00:20:00;;;;;;;4.57;1.80;;;24.20;97.50;;;;;;5134754;27;20029;-57
2022/06/22 00:22:25;;;;;;;4.00;2.45;;;24.30;97.60;;;;;;5134471;27;20102;-57
2022/06/22 00:25:01;;;;;;;5.47;2.13;;;24.40;97.50;;;;;;5134336;27;20098;-54
2022/06/22 00:27:36;;;;;;;2.35;1.77;;;24.40;97.40;;;;;;5134382;27;20449;-54
2022/06/22 00:30:12;;;;;;;2.50;2.10;;;24.40;97.40;;;;;;5134519;27;20362;-56
2022/06/22 00:32:38;;;;;;;2.78;2.00;;;24.20;97.50;;;;;;5134302;27;20023;-56
2022/06/22 00:35:41;;;;;;;4.47;2.38;;;24.10;97.60;;;;;;5134559;27;20023;-59
2022/06/22 00:38:12;;;;;;;4.40;2.25;;;24.00;97.80;;;;;;5134117;27;20019;-57
2022/06/22 00:40:38;;;;;;;6.38;2.35;;;23.90;98.10;;;;;;5134471;27;20163;-56
2022/06/22 00:43:04;;;;;;;2.55;2.00;;;23.80;98.10;;;;;;5134330;28;20485;-56
2022/06/22 00:45:34;;;;;;;2.50;2.15;;;23.80;98.30;;;;;;5134526;28;20034;-57
2022/06/22 00:48:22;;;;;;;5.30;1.80;;;23.80;98.50;;;;;;5134397;28;20049;-55
2022/06/22 00:50:55;;;;;;;2.13;1.90;;;23.80;98.00;;;;;;5134365;28;20102;-55
2022/06/22 00:53:32;;;;;;;1.65;1.50;;;23.80;97.60;;;;;;5134103;28;20027;-56
2022/06/22 00:56:09;;;;;;;2.70;1.65;;;24.00;97.80;;;;;;5134069;28;20466;-59
2022/06/22 00:58:46;;;;;;;2.80;1.80;;;24.10;97.40;;;;;;5133984;28;20051;-58
2022/06/22 01:01:46;;;;;;;3.90;2.30;;;24.00;97.30;;;;;;5133931;28;20023;-57
2022/06/22 01:04:42;;;;;;;2.10;1.90;;;23.60;97.50;;;;;;5119136;28;20031;-57
2022/06/22 01:07:17;;;;;;;5.80;1.90;;;23.50;98.00;;;;;;5105377;28;20055;-56
2022/06/22 01:10:06;;;;;;;1.52;1.42;;;23.50;97.70;;;;;;5134229;28;20120;-57
2022/06/22 01:13:06;;;;;;;3.38;1.90;;;23.50;97.90;;;;;;5133961;28;20019;-58
2022/06/22 01:15:41;;;;;;;4.93;1.65;;;23.50;97.80;;;;;;5133948;28;20102;-54
2022/06/22 01:18:15;;;;;;;2.45;1.15;;;23.60;97.70;;;;;;5134417;28;20100;-54
2022/06/22 01:20:44;;;;;;;1.92;1.40;;;23.70;97.90;;;;;;5133553;28;20031;-56
2022/06/22 01:23:57;;;;;;;1.58;1.30;;;23.80;97.90;;;;;;5133896;28;20389;-55
2022/06/22 01:27:00;;;;;;;1.40;1.30;;;23.80;97.80;;;;;;5071241;28;20036;-60
2022/06/22 01:29:27;;;;;;;1.92;1.48;;;23.80;97.80;;;;;;5133813;28;20026;-57
2022/06/22 01:32:01;;;;;;;1.45;1.30;;;23.80;97.50;;;;;;5133799;28;20030;-54
2022/06/22 01:34:39;;;;;;;2.40;1.40;;;23.70;97.50;;;;;;5133769;28;20042;-57
2022/06/22 01:37:11;;;;;;;1.48;1.30;;;23.70;97.50;;;;;;5133573;28;20088;-54
2022/06/22 01:39:37;;;;;;;3.10;1.58;;;23.70;97.60;;;;;;5134042;28;20075;-59
2022/06/22 01:42:35;;;;;;;1.23;1.05;;;23.80;97.40;;;;;;5133642;28;20481;-59
2022/06/22 01:45:04;;;;;;;2.33;1.73;;;23.70;97.40;;;;;;5129422;28;20027;-57
2022/06/22 01:47:53;;;;;;;2.42;1.40;;;23.50;97.70;;;;;;5135394;27;20020;-57
2022/06/22 01:50:32;;;;;;;3.17;1.98;;;23.50;98.30;;;;;;5137451;27;20027;-58
2022/06/22 01:53:12;;;;;;;2.13;1.52;;;23.50;98.40;;;;;;5137348;27;20110;-59
2022/06/22 01:55:59;;;;;;;2.50;1.90;;;23.50;98.30;;;;;;5137567;27;20436;-56
2022/06/22 01:58:33;;;;;;;3.58;1.80;;;23.40;97.90;;;;;;5137019;27;20051;-57
2022/06/22 02:01:14;;;;;;;3.85;2.08;;;23.20;98.00;;;;;;5137344;27;20023;-56
2022/06/22 02:03:49;;;;;;;4.15;2.50;;;23.10;98.50;;;;;;5137165;27;20016;-57
2022/06/22 02:09:08;;;;;;;2.90;2.25;;;23.00;98.80;;;;;;5137182;27;20072;-56
2022/06/22 02:11:41;;;;;;;2.10;1.85;;;23.10;98.90;;;;;;5136843;27;20023;-54
2022/06/22 02:14:16;;;;;;;4.20;2.50;;;23.10;99.00;;;;;;5137198;27;20023;-57
2022/06/22 02:16:56;;;;;;;3.10;2.22;;;23.00;99.20;;;;;;5137184;27;20087;-57
2022/06/22 02:19:23;;;;;;;5.00;2.30;;;22.80;99.50;;;;;;5136931;27;20027;-56
2022/06/22 02:21:54;;;;;;;1.92;1.73;;;22.80;99.20;;;;;;5136713;27;20019;-59
2022/06/22 02:24:22;;;;;;;2.78;1.40;;;22.80;98.70;;;;;;5136633;27;20024;-56
2022/06/22 02:27:10;;;;;;;1.63;1.45;;;22.90;98.80;;;;;;5136837;27;20016;-57
2022/06/22 02:29:46;;;;;;;1.42;1.25;;;23.10;98.80;;;;;;5136795;27;20019;-56
2022/06/22 02:32:21;;;;;;;2.72;1.50;;;23.20;98.70;;;;;;5136736;27;20042;-57
2022/06/22 02:34:49;;;;;;;2.72;2.20;;;23.20;98.60;;;;;;5136497;27;20019;-52
2022/06/22 02:37:18;;;;;;;2.20;1.58;;;23.10;98.90;;;;;;5136371;27;20050;-56
2022/06/22 02:39:51;;;;;;;2.50;1.75;;;23.00;99.30;;;;;;5136514;27;20098;-57
2022/06/22 02:45:03;;;;;;;3.20;2.20;;;22.90;99.60;;;;;;5136433;27;20390;-58
2022/06/22 02:48:00;;;;;;;3.63;1.60;;;22.90;99.70;;;;;;5136244;27;20020;-59
2022/06/22 02:50:46;;;;;;;1.65;1.50;;;22.90;99.80;;;;;;5129635;27;20035;-57
2022/06/22 02:53:23;;;;;;;1.55;1.40;;;22.90;99.70;;;;;;5136303;27;20031;-54
2022/06/22 02:55:50;;;;;;;1.40;1.30;;;23.00;99.50;;;;;;5136106;27;20015;-56
2022/06/22 02:58:30;;;;;;;2.95;1.67;;;23.10;99.50;;;;;;5134985;27;20039;-54
2022/06/22 03:01:01;;;;;;;1.42;1.30;;;23.10;99.40;;;;;;5136224;27;20027;-56
2022/06/22 03:03:28;;;;;;;0.90;0.90;;;23.10;99.30;;;;;;5135766;27;20028;-57
2022/06/22 03:05:57;;;;;;;1.05;0.90;;;23.10;99.70;;;;;;5135894;27;20505;-56
2022/06/22 03:08:24;;;;;;;2.08;1.27;;;23.20;99.40;;;;;;5135804;27;20031;-56
2022/06/22 03:10:58;;;;;;;1.13;1.00;;;23.30;99.10;;;;;;5135986;27;20015;-57
2022/06/22 03:13:47;;;;;;;1.75;0.93;;;23.30;99.20;;;;;;5135780;27;20063;-57
2022/06/22 03:16:26;;;;;;;0.95;0.80;;;23.40;99.40;;;;;;5135793;27;20042;-56
2022/06/22 03:18:54;;;;;;;1.52;1.40;;;23.40;99.00;;;;;;5135743;27;20054;-56
2022/06/22 03:21:20;;;;;;;1.50;1.40;;;23.50;98.90;;;;;;5135712;27;20066;-57
2022/06/22 03:23:54;;;;;;;1.83;1.10;;;23.40;98.70;;;;;;5135633;27;20023;-53
2022/06/22 03:26:23;;;;;;;1.15;1.05;;;23.40;98.80;;;;;;5135428;27;20572;-59
2022/06/22 03:29:19;;;;;;;1.48;1.23;;;23.40;98.80;;;;;;5135472;27;20031;-55
2022/06/22 03:31:50;;;;;;;1.40;0.95;;;23.40;99.00;;;;;;5128580;27;20039;-58
2022/06/22 03:34:24;;;;;;;1.13;1.02;;;23.50;99.00;;;;;;5135160;27;20034;-58
2022/06/22 03:37:06;;;;;;;1.13;1.00;;;23.50;98.80;;;;;;5135191;27;20027;-57
2022/06/22 03:39:37;;;;;;;1.92;1.02;;;23.60;98.50;;;;;;5135393;27;20476;-57
2022/06/22 03:42:13;;;;;;;0.90;0.80;;;23.60;98.40;;;;;;5135049;27;20122;-57
2022/06/22 03:44:46;;;;;;;1.00;0.90;;;23.70;98.40;;;;;;5135298;27;20517;-55
2022/06/22 03:47:34;;;;;;;1.25;1.10;;;23.70;98.60;;;;;;5134907;27;20608;-58
2022/06/22 03:50:08;;;;;;;0.98;0.85;;;23.70;98.60;;;;;;5135214;27;20023;-54
2022/06/22 03:52:49;;;;;;;3.30;1.42;;;23.70;98.70;;;;;;5134876;27;20485;-57
2022/06/22 03:55:23;;;;;;;3.05;1.80;;;23.70;98.30;;;;;;5135106;27;20488;-56
2022/06/22 03:57:53;;;;;;;2.08;1.50;;;23.70;98.10;;;;;;5134746;27;20054;-58
2022/06/22 04:00:20;;;;;;;2.53;1.17;;;23.70;98.20;;;;;;5134788;27;20052;-57
2022/06/22 04:02:47;;;;;;;2.83;1.10;;;23.70;98.50;;;;;;5134899;27;20015;-54
2022/06/22 04:05:27;;;;;;;1.38;1.10;;;23.70;98.10;;;;;;5134709;27;20015;-58
2022/06/22 04:07:54;;;;;;;1.83;1.30;;;23.80;98.20;;;;;;5134756;27;20538;-56
2022/06/22 04:10:36;;;;;;;4.72;1.67;;;23.80;98.20;;;;;;5134740;27;20031;-55
2022/06/22 04:13:06;;;;;;;1.92;1.20;;;23.70;98.00;;;;;;5135183;27;20362;-57
2022/06/22 04:15:40;;;;;;;1.70;1.60;;;23.70;98.60;;;;;;5134751;27;20524;-57
2022/06/22 04:18:23;;;;;;;1.80;1.70;;;23.70;98.40;;;;;;5134604;27;20023;-57
2022/06/22 04:20:54;;;;;;;1.63;1.52;;;23.60;98.60;;;;;;5134573;27;20027;-56
2022/06/22 04:23:28;;;;;;;1.98;1.55;;;23.50;98.70;;;;;;5134463;27;20046;-56
2022/06/22 04:25:58;;;;;;;1.13;1.08;;;23.50;98.50;;;;;;5134469;27;20023;-57
2022/06/22 04:28:26;;;;;;;1.58;1.10;;;23.70;98.20;;;;;;5134340;27;20470;-57
2022/06/22 04:30:54;;;;;;;2.10;1.48;;;23.80;98.20;;;;;;5134203;27;20023;-58
2022/06/22 04:33:30;;;;;;;1.60;1.10;;;23.80;97.30;;;;;;5134692;27;20019;-54
2022/06/22 04:36:06;;;;;;;1.40;1.30;;;23.90;97.50;;;;;;5134271;27;20033;-58
2022/06/22 04:38:40;;;;;;;2.25;1.70;;;24.00;97.00;;;;;;5134359;27;20047;-57
2022/06/22 04:41:32;;;;;;;2.33;1.50;;;24.00;97.60;;;;;;5134421;27;20099;-57
2022/06/22 04:44:21;;;;;;;2.78;1.50;;;23.90;97.00;;;;;;5134554;27;20024;-59
2022/06/22 04:46:58;;;;;;;1.40;1.05;;;24.00;96.90;;;;;;5133967;28;20026;-57
2022/06/22 04:49:35;;;;;;;3.55;1.63;;;24.10;96.30;;;;;;5134368;28;20023;-58
2022/06/22 04:52:18;;;;;;;1.70;1.20;;;24.30;94.90;;;;;;5134411;28;20034;-59
2022/06/22 04:54:45;;;;;;;1.60;1.40;;;24.20;94.90;;;;;;5134299;28;20027;-57
2022/06/22 04:57:23;;;;;;;14.10;1.95;;;24.10;95.00;;;;;;5115579;28;20405;-56
2022/06/22 04:59:50;;;;;;;1.88;1.70;;;23.80;94.40;;;;;;5133818;28;20358;-58
2022/06/22 05:02:21;;;;;;;7.07;2.15;;;23.70;95.20;;;;;;5107321;28;20023;-58
2022/06/22 05:04:53;;;;;;;4.03;1.63;;;23.70;94.50;;;;;;5127919;28;20019;-56
2022/06/22 05:07:34;;;;;;;2.95;1.80;;;23.60;95.60;;;;;;5125633;28;20433;-59
2022/06/22 05:10:12;;;;;;;4.93;1.98;;;23.70;95.60;;;;;;5132005;28;20065;-60
2022/06/22 05:13:02;;;;;;;3.72;2.50;;;23.50;96.70;;;;;;5125004;27;20476;-52
2022/06/22 05:15:35;;;;;;;4.53;2.22;;;23.50;96.60;;;;;;5107903;28;20036;-53
2022/06/22 05:18:04;;;;;;;2.22;1.85;;;23.50;96.70;;;;;;5129127;28;20055;-53
2022/06/22 05:20:43;;;;;;;2.00;1.88;;;23.60;96.90;;;;;;5121318;28;20106;-59
2022/06/22 05:23:09;;;;;;;3.92;1.60;;;23.90;96.50;;;;;;5126551;27;20597;-54
2022/06/22 05:25:36;;;;;;;2.55;1.65;;;24.10;96.40;;;;;;5122963;27;20032;-62
2022/06/22 05:28:08;;;;;;;2.30;1.45;;;24.20;95.90;;;;;;5123353;27;20016;-56
2022/06/22 05:30:46;;;;;;;2.40;1.70;;;24.30;95.60;;;;;;5117990;27;20068;-58
2022/06/22 05:33:16;;;;;;;1.15;1.05;;;24.40;95.30;;;;;;5121960;27;20038;-54
2022/06/22 05:35:49;;;;;;;2.35;1.55;;;24.50;95.20;;;;;;5127450;27;20031;-51
2022/06/22 05:38:16;;;;;;;1.65;1.08;;;24.70;94.70;;;;;;5115431;28;20032;-52
2022/06/22 05:40:43;;;;;;;1.15;1.10;;;24.90;95.00;;;;;;5129275;27;20059;-57
2022/06/22 05:43:09;;;;;;;1.25;0.95;;;25.10;95.20;;;;;;5121989;27;20068;-54
2022/06/22 05:45:50;;;;;;;2.35;1.27;;;25.20;94.70;;;;;;5135641;27;20094;-61
2022/06/22 05:48:23;;;;;;;1.33;1.23;;;25.00;93.90;;;;;;5135317;27;20019;-56
2022/06/22 05:51:19;;;;;;;1.55;1.15;;;25.00;93.70;;;;;;5135797;27;20019;-55
2022/06/22 05:53:48;;;;;;;3.08;1.42;;;25.00;93.30;;;;;;5117197;27;20040;-51
2022/06/22 05:56:25;;;;;;;1.75;1.33;;;25.00;93.20;;;;;;5116817;28;20051;-57
2022/06/22 05:59:12;;;;;;;3.05;1.40;;;25.00;93.10;;;;;;5116381;28;20100;-58
2022/06/22 06:01:56;;;;;;;2.08;1.27;;;25.10;92.50;;;;;;5116648;28;20020;-55
2022/06/22 06:04:33;;;;;;;2.70;1.38;;;25.30;91.70;;;;;;5116060;28;20486;-59
2022/06/22 06:07:15;;;;;;;1.92;1.20;;;25.40;91.30;;;;;;5124253;27;20011;-52
2022/06/22 06:09:41;;;;;;;3.65;1.30;;;25.50;90.50;;;;;;5136826;27;20030;-61
2022/06/22 06:12:19;;;;;;;1.90;1.40;;;25.60;90.70;;;;;;5115448;27;20359;-54
2022/06/22 06:14:50;;;;;;;1.40;1.20;;;25.70;91.90;;;;;;5114801;28;20119;-49
2022/06/22 06:17:40;;;;;;;2.63;1.20;;;25.80;90.90;;;;;;5114858;28;20073;-56
2022/06/22 06:20:15;;;;;;;2.35;1.58;;;25.90;89.50;;;;;;5116642;27;20081;-53
2022/06/22 06:22:41;;;;;;;1.95;1.80;;;25.90;89.80;;;;;;5136796;27;20072;-54
2022/06/22 06:28:11;;;;;;;2.10;1.58;;;25.90;87.10;;;;;;5130294;27;20038;-58
2022/06/22 06:30:46;;;;;;;2.15;1.50;;;25.90;87.80;;;;;;5130149;27;20508;-53
2022/06/22 06:33:31;;;;;;;1.52;1.33;;;26.00;86.70;;;;;;5129711;27;20067;-61
2022/06/22 06:35:59;;;;;;;1.65;1.42;;;26.10;86.40;;;;;;5130151;27;20034;-59
2022/06/22 06:38:36;;;;;;;2.45;1.70;;;26.00;86.40;;;;;;5129570;27;20169;-55
2022/06/22 06:41:13;;;;;;;1.80;1.70;;;26.00;84.60;;;;;;5111749;27;20481;-56
2022/06/22 06:43:52;;;;;;;2.13;1.67;;;26.10;84.40;;;;;;5116490;27;20033;-57
2022/06/22 06:46:41;;;;;;;1.40;1.30;;;26.30;83.80;;;;;;5116014;27;20435;-55
2022/06/22 06:49:13;;;;;;;1.40;1.23;;;26.40;82.50;;;;;;5115241;27;20039;-52
2022/06/22 06:51:46;;;;;;;1.30;1.20;;;26.60;83.50;;;;;;5131350;27;20039;-55
2022/06/22 06:54:53;;;;;;;3.53;1.60;;;26.70;82.70;;;;;;5133274;27;20059;-58
2022/06/22 06:57:22;;;;;;;2.42;1.52;;;26.70;81.00;;;;;;5134466;27;20442;-59
2022/06/22 06:59:53;;;;;;;2.13;1.70;;;26.80;80.10;;;;;;5134273;27;20026;-51
2022/06/22 07:02:25;;;;;;;1.92;1.70;;;26.80;80.90;;;;;;5135624;27;20358;-53
2022/06/22 07:04:51;;;;;;;2.45;1.63;;;26.80;83.50;;;;;;5136083;27;20026;-58
2022/06/22 07:07:38;;;;;;;3.30;1.80;;;27.10;81.50;;;;;;5135699;27;20031;-57
2022/06/22 07:10:12;;;;;;;2.47;1.67;;;27.40;78.10;;;;;;5135901;27;20496;-50
2022/06/22 07:12:58;;;;;;;3.00;1.58;;;27.60;78.40;;;;;;5135790;27;20019;-54
2022/06/22 07:15:39;;;;;;;4.25;2.15;;;27.70;77.60;;;;;;5135163;27;20063;-58
2022/06/22 07:18:23;;;;;;;6.55;3.15;;;27.90;77.40;;;;;;5100624;27;20496;-55
2022/06/22 07:20:56;;;;;;;3.45;2.67;;;27.80;76.00;;;;;;5135582;27;20071;-56
2022/06/22 07:23:30;;;;;;;2.92;2.63;;;27.50;76.10;;;;;;5135013;27;20381;-58
2022/06/22 07:26:12;;;;;;;3.20;2.58;;;27.50;76.90;;;;;;5134152;27;20415;-55
2022/06/22 07:28:42;;;;;;;6.25;4.10;;;27.60;80.40;;;;;;5126840;27;20482;-56
2022/06/22 07:31:40;;;;;;;5.40;4.05;;;27.80;77.30;;;;;;5123853;27;20498;-58
2022/06/22 07:34:38;;;;;;;6.20;3.75;;;27.70;74.60;;;;;;5131414;27;20374;-56
2022/06/22 07:37:30;;;;;;;3.30;3.00;;;27.50;73.90;;;;;;5096930;28;20096;-52
2022/06/22 07:40:05;;;;;;;4.38;2.35;;;27.60;75.00;;;;;;5096864;28;20494;-54
2022/06/22 07:42:31;;;;;;;2.40;2.20;;;27.60;73.40;;;;;;5114678;28;20543;-57
2022/06/22 07:44:57;;;;;;;3.85;2.25;;;27.60;73.10;;;;;;5124354;27;20158;-57
2022/06/22 07:47:39;;;;;;;2.28;2.08;;;27.90;74.10;;;;;;5139263;27;20118;-50
2022/06/22 07:50:13;;;;;;;4.00;1.77;;;28.50;75.50;;;;;;5128757;27;20046;-55
2022/06/22 07:52:52;;;;;;;1.95;1.20;;;28.90;76.00;;;;;;5130615;27;20398;-50
2022/06/22 07:55:31;;;;;;;2.28;1.90;;;29.10;76.10;;;;;;5131068;27;20529;-60
2022/06/22 07:58:06;;;;;;;1.73;1.55;;;29.80;72.40;;;;;;5132777;27;20043;-59
2022/06/22 08:00:34;;;;;;;2.80;1.75;;;30.00;71.10;;;;;;5130842;27;20027;-58
2022/06/22 08:03:26;;;;;;;6.65;1.85;;;30.10;66.40;;;;;;5132506;27;20377;-56
2022/06/22 08:05:56;;;;;;;2.03;1.65;;;31.10;66.90;;;;;;5131903;27;20033;-51
2022/06/22 08:08:29;;;;;;;2.00;1.40;;;31.70;63.20;;;;;;5134009;27;20023;-53
2022/06/22 08:10:58;;;;;;;4.65;2.20;;;31.50;62.80;;;;;;5127877;27;20106;-63
2022/06/22 08:13:30;;;;;;;3.70;1.67;;;31.10;62.90;;;;;;5133840;27;20023;-58
2022/06/22 08:16:18;;;;;;;1.60;1.50;;;30.50;64.00;;;;;;5133112;27;20027;-54
2022/06/22 08:18:44;;;;;;;2.60;2.00;;;30.20;62.20;;;;;;5113511;27;20423;-56
2022/06/22 08:21:14;;;;;;;1.95;1.73;;;31.20;65.90;;;;;;5132356;27;20049;-52
2022/06/22 08:23:41;;;;;;;1.80;1.48;;;33.30;61.00;;;;;;5120621;27;20023;-51
2022/06/22 08:26:32;;;;;;;2.35;1.50;;;34.70;61.80;;;;;;5126288;27;20054;-56
2022/06/22 08:29:00;;;;;;;3.30;1.80;;;35.40;55.90;;;;;;5127516;27;20486;-55
2022/06/22 08:31:43;;;;;;;5.13;1.63;;;35.60;55.70;;;;;;5130617;27;20031;-57
2022/06/22 08:34:12;;;;;;;3.40;1.70;;;36.00;53.50;;;;;;5131002;27;20023;-55
2022/06/22 08:36:54;;;;;;;3.15;1.70;;;35.20;51.50;;;;;;5132019;27;20051;-61
2022/06/22 08:39:25;;;;;;;1.90;1.70;;;35.30;50.60;;;;;;5131598;27;20489;-56
2022/06/22 08:42:05;;;;;;;3.47;1.75;;;35.10;53.90;;;;;;5131852;27;20102;-59
2022/06/22 08:44:43;;;;;;;2.28;1.67;;;34.20;50.10;;;;;;5132782;27;20429;-53
2022/06/22 08:47:32;;;;;;;2.00;1.90;;;33.60;53.20;;;;;;5133236;28;20030;-56
2022/06/22 08:50:16;;;;;;;4.18;2.60;;;33.40;51.20;;;;;;5133474;28;20022;-56
2022/06/22 08:53:00;;;;;;;2.65;1.88;;;32.90;53.10;;;;;;5133541;28;20026;-53
2022/06/22 08:55:47;;;;;;;3.80;2.08;;;32.40;54.90;;;;;;5132342;27;20024;-60
2022/06/22 08:58:25;;;;;;;5.82;2.92;;;32.30;54.00;;;;;;5137249;27;20053;-57
2022/06/22 09:01:06;;;;;;;6.20;3.00;;;32.00;54.70;;;;;;5118950;27;20388;-54
2022/06/22 09:03:59;;;;;;;2.63;2.42;;;31.30;54.90;;;;;;5137835;27;20016;-53
2022/06/22 09:06:49;;;;;;;3.38;2.22;;;31.40;57.10;;;;;;5135735;27;20051;-60
2022/06/22 09:09:21;;;;;;;4.47;2.78;;;32.00;59.60;;;;;;5136841;27;20023;-50
2022/06/22 09:12:03;;;;;;;4.00;2.63;;;32.10;55.00;;;;;;5137805;27;20419;-59
2022/06/22 09:14:56;;;;;;;4.85;2.67;;;31.90;55.10;;;;;;5137223;27;20019;-59
2022/06/22 09:17:46;;;;;;;4.28;2.80;;;32.20;57.90;;;;;;5099645;27;20366;-53
2022/06/22 09:20:33;;;;;;;4.03;2.72;;;32.90;55.60;;;;;;5135780;27;20023;-56
2022/06/22 09:23:20;;;;;;;4.63;3.08;;;33.60;56.10;;;;;;5133305;27;20503;-54
2022/06/22 09:26:07;;;;;;;7.47;3.50;;;34.40;57.10;;;;;;5134347;27;20016;-56
2022/06/22 09:28:58;;;;;;;6.53;3.95;;;34.50;54.60;;;;;;5135019;27;20023;-55
2022/06/22 09:31:29;;;;;;;4.35;3.00;;;34.70;56.50;;;;;;5135318;27;20027;-54
2022/06/22 09:34:07;;;;;;;3.80;3.40;;;35.00;58.10;;;;;;5116998;27;20370;-54
2022/06/22 09:37:02;;;;;;;4.53;3.55;;;35.30;55.00;;;;;;5136015;27;20517;-62
2022/06/22 09:39:40;;;;;;;5.03;3.30;;;36.20;53.30;;;;;;5132990;27;20036;-59
2022/06/22 09:42:11;;;;;;;4.57;3.22;;;36.50;51.70;;;;;;5128012;27;20023;-54
2022/06/22 09:45:09;;;;;;;5.07;3.50;;;36.90;54.20;;;;;;5121325;27;20043;-55
2022/06/22 09:47:56;;;;;;;4.88;4.00;;;37.50;53.50;;;;;;5125074;27;20455;-57
2022/06/22 09:50:48;;;;;;;4.65;3.42;;;37.30;51.10;;;;;;5130420;27;20027;-55
2022/06/22 09:53:32;;;;;;;5.40;4.10;;;37.10;51.10;;;;;;5137217;27;20030;-60
2022/06/22 09:56:20;;;;;;;4.45;4.05;;;37.40;54.00;;;;;;5124021;27;20107;-54
2022/06/22 09:59:02;;;;;;;5.85;4.72;;;37.30;53.60;;;;;;5134977;27;20039;-54
2022/06/22 10:01:47;;;;;;;5.22;4.40;;;36.90;52.00;;;;;;5134909;27;20034;-52
2022/06/22 10:04:21;;;;;;;5.40;4.18;;;36.90;53.20;;;;;;5135078;27;20019;-54
2022/06/22 10:07:13;;;;;;;4.28;3.70;;;37.10;56.80;;;;;;5134759;27;20120;-57
2022/06/22 10:10:00;;;;;;;6.90;4.27;;;37.00;57.90;;;;;;5135807;27;20035;-57
2022/06/22 10:12:47;;;;;;;5.53;4.15;;;37.00;56.90;;;;;;5134884;27;20053;-56
2022/06/22 10:15:34;;;;;;;4.72;4.25;;;36.90;57.70;;;;;;5133493;27;20031;-51
2022/06/22 10:18:12;;;;;;;3.75;3.55;;;37.00;54.90;;;;;;5132295;27;20031;-63
2022/06/22 10:20:41;;;;;;;6.78;4.05;;;37.20;54.70;;;;;;5113905;27;20038;-58
2022/06/22 10:23:26;;;;;;;3.60;3.30;;;37.40;54.10;;;;;;5127860;27;20023;-57
2022/06/22 10:25:59;;;;;;;4.28;3.88;;;37.60;56.30;;;;;;5131646;27;20484;-54
2022/06/22 10:28:49;;;;;;;4.20;3.70;;;37.80;54.60;;;;;;5134300;27;20060;-59
2022/06/22 10:31:42;;;;;;;5.05;4.03;;;38.00;56.70;;;;;;5135249;27;20027;-58
2022/06/22 10:34:28;;;;;;;4.82;4.40;;;38.10;56.30;;;;;;5136237;27;20363;-54
2022/06/22 10:37:31;;;;;;;4.78;4.38;;;38.30;55.00;;;;;;5135480;27;20024;-55
2022/06/22 10:40:06;;;;;;;4.72;4.32;;;37.90;55.80;;;;;;5120169;27;20084;-55
2022/06/22 10:46:00;;;;;;;4.70;4.30;;;37.70;56.30;;;;;;5126906;27;20489;-56
2022/06/22 10:48:45;;;;;;;5.72;4.75;;;38.00;56.10;;;;;;5132811;27;20020;-57
2022/06/22 10:51:22;;;;;;;4.88;4.47;;;37.70;56.40;;;;;;5132723;27;20054;-57
2022/06/22 10:54:20;;;;;;;5.80;4.55;;;37.50;54.80;;;;;;5134061;27;20385;-53
2022/06/22 10:56:49;;;;;;;5.35;4.47;;;37.10;56.90;;;;;;5134991;27;20094;-54
2022/06/22 10:59:38;;;;;;;6.55;5.10;;;37.00;56.80;;;;;;5135366;27;20082;-52
2022/06/22 11:02:32;;;;;;;4.35;4.05;;;36.90;56.10;;;;;;5131360;27;20038;-50
2022/06/22 11:05:07;;;;;;;4.50;4.10;;;37.00;56.10;;;;;;5132600;27;20101;-55
2022/06/22 11:08:11;;;;;;;4.05;3.85;;;36.80;58.40;;;;;;5115179;27;20028;-55
2022/06/22 11:10:48;;;;;;;4.20;3.90;;;37.00;56.30;;;;;;5111330;28;20424;-55
2022/06/22 11:13:32;;;;;;;4.80;4.40;;;36.90;56.20;;;;;;5111557;28;20048;-55
2022/06/22 11:16:18;;;;;;;3.85;3.55;;;37.10;57.80;;;;;;5111425;28;20076;-56
2022/06/22 11:19:29;;;;;;;4.32;3.65;;;37.30;59.30;;;;;;5096369;28;20536;-57
2022/06/22 11:22:10;;;;;;;4.68;4.32;;;37.50;56.80;;;;;;5106912;28;20035;-55
2022/06/22 11:25:08;;;;;;;5.00;4.07;;;37.80;56.30;;;;;;5111924;28;20469;-53
2022/06/22 11:30:59;;;;;;;4.22;3.83;;;37.60;55.40;;;;;;5112910;28;20038;-54
2022/06/22 11:33:56;;;;;;;3.88;3.58;;;37.90;54.40;;;;;;5113797;28;20466;-56
2022/06/22 11:36:36;;;;;;;3.25;3.05;;;37.90;53.30;;;;;;5114357;28;20035;-56
2022/06/22 11:39:29;;;;;;;3.83;3.35;;;37.60;51.30;;;;;;5114529;28;20028;-55
2022/06/22 11:41:57;;;;;;;3.47;3.17;;;37.60;51.80;;;;;;5114661;28;20020;-57
2022/06/22 11:47:49;;;;;;;3.00;2.80;;;38.00;53.30;;;;;;5112010;28;20058;-56
2022/06/22 11:50:32;;;;;;;2.70;2.50;;;38.10;52.40;;;;;;5111939;28;20466;-58
2022/06/22 11:53:23;;;;;;;3.25;2.95;;;38.10;50.10;;;;;;5112098;28;20028;-55
2022/06/22 11:55:54;;;;;;;3.03;2.63;;;38.20;52.60;;;;;;5112310;28;20025;-57
2022/06/22 11:58:50;;;;;;;4.35;3.08;;;38.20;52.60;;;;;;5113062;28;20048;-57
2022/06/22 12:01:43;;;;;;;3.78;3.40;;;38.30;53.40;;;;;;5113736;28;20397;-55
2022/06/22 12:04:39;;;;;;;4.75;3.50;;;38.10;53.20;;;;;;5114320;28;20382;-58
2022/06/22 12:07:19;;;;;;;2.72;2.53;;;37.80;51.60;;;;;;5114325;28;20037;-55
2022/06/22 12:10:14;;;;;;;2.80;2.60;;;37.70;53.10;;;;;;5114262;28;20159;-57
2022/06/22 12:12:58;;;;;;;2.80;2.60;;;37.90;52.80;;;;;;5114124;28;20038;-56
2022/06/22 12:15:33;;;;;;;3.10;2.80;;;38.20;53.90;;;;;;5114186;28;20080;-54
2022/06/22 12:18:11;;;;;;;3.30;2.95;;;38.40;53.00;;;;;;5114027;28;20020;-57
2022/06/22 12:20:50;;;;;;;3.60;3.30;;;38.40;52.80;;;;;;5114042;28;20023;-54
2022/06/22 12:23:30;;;;;;;4.38;2.80;;;38.00;50.20;;;;;;5113934;28;20072;-57
2022/06/22 12:26:20;;;;;;;2.97;2.67;;;38.20;49.60;;;;;;5113997;28;20477;-56
2022/06/22 12:29:00;;;;;;;3.10;2.80;;;38.40;48.50;;;;;;5114221;28;20046;-56
2022/06/22 12:31:34;;;;;;;3.03;2.75;;;38.40;51.90;;;;;;5113508;28;20473;-55
2022/06/22 12:34:12;;;;;;;3.55;2.83;;;38.40;54.10;;;;;;5114056;28;20023;-57
2022/06/22 12:36:39;;;;;;;2.97;2.75;;;38.40;52.10;;;;;;5113972;28;20141;-54
2022/06/22 12:39:09;;;;;;;3.10;2.85;;;38.40;51.20;;;;;;5113997;28;20020;-56
2022/06/22 12:41:53;;;;;;;3.20;2.90;;;38.30;48.90;;;;;;5114008;28;20023;-57
2022/06/22 12:44:34;;;;;;;4.20;3.45;;;38.10;48.70;;;;;;5113552;28;20020;-56
2022/06/22 12:47:21;;;;;;;3.60;3.30;;;37.50;48.30;;;;;;5113760;28;20073;-57
2022/06/22 12:49:52;;;;;;;3.22;2.92;;;37.20;52.00;;;;;;5113698;28;20028;-56
2022/06/22 12:52:34;;;;;;;4.00;3.65;;;37.40;50.60;;;;;;5113662;28;20063;-57
2022/06/22 12:55:08;;;;;;;3.20;2.90;;;37.20;48.80;;;;;;5113811;28;20500;-57
2022/06/22 12:57:57;;;;;;;3.53;3.20;;;37.10;49.60;;;;;;5113667;28;20052;-58
2022/06/22 13:00:23;;;;;;;3.13;2.80;;;37.30;52.50;;;;;;5113353;28;20528;-56
2022/06/22 13:02:52;;;;;;;2.50;2.28;;;37.30;53.60;;;;;;5113632;28;20024;-57
2022/06/22 13:05:23;;;;;;;2.78;2.58;;;37.30;52.20;;;;;;5113424;28;20114;-53
2022/06/22 13:07:53;;;;;;;3.47;2.97;;;37.20;49.40;;;;;;5113531;28;20031;-59
2022/06/22 13:10:24;;;;;;;3.15;2.72;;;36.70;49.70;;;;;;5113776;28;20066;-54
2022/06/22 13:12:59;;;;;;;2.60;2.40;;;36.50;50.10;;;;;;5113732;28;20024;-58
2022/06/22 13:15:36;;;;;;;4.40;2.30;;;36.40;51.00;;;;;;5113725;28;20019;-54
2022/06/22 13:18:06;;;;;;;2.90;2.70;;;36.20;51.10;;;;;;5113313;28;20062;-53
2022/06/22 13:20:45;;;;;;;3.17;2.63;;;35.90;53.00;;;;;;5113399;28;20389;-53
2022/06/22 13:23:16;;;;;;;4.88;2.88;;;35.60;52.00;;;;;;5113550;28;20051;-56
2022/06/22 13:26:13;;;;;;;3.53;2.70;;;35.70;54.30;;;;;;5113418;28;20016;-56
2022/06/22 13:29:31;;;;;;;2.95;2.60;;;35.60;54.00;;;;;;5113086;28;20023;-58
2022/06/22 13:32:03;;;;;;;4.13;3.35;;;35.60;54.00;;;;;;5069996;28;20039;-56
2022/06/22 13:34:40;;;;;;;3.10;2.50;;;35.80;54.90;;;;;;5113383;28;20382;-56
2022/06/22 13:37:32;;;;;;;3.50;2.78;;;35.70;52.20;;;;;;5113530;28;20028;-55
2022/06/22 13:40:14;;;;;;;4.53;2.70;;;35.70;55.00;;;;;;5113218;28;20489;-55
2022/06/22 13:43:01;;;;;;;3.10;2.80;;;35.80;52.90;;;;;;5113906;28;20390;-56
2022/06/22 13:45:41;;;;;;;2.92;2.60;;;35.90;52.50;;;;;;5117309;28;20113;-58
2022/06/22 13:48:16;;;;;;;2.55;2.35;;;35.90;53.50;;;;;;5117271;28;20032;-55
2022/06/22 13:53:41;;;;;;;2.38;2.17;;;35.70;53.40;;;;;;5117239;28;20056;-59
2022/06/22 13:56:44;;;;;;;3.90;3.35;;;35.30;52.90;;;;;;5116641;28;20023;-54
2022/06/22 13:59:23;;;;;;;3.53;2.80;;;34.90;53.60;;;;;;5116611;28;20052;-56
2022/06/22 14:02:20;;;;;;;5.60;2.65;;;34.70;55.00;;;;;;5116754;28;20102;-55
2022/06/22 14:04:56;;;;;;;4.28;2.40;;;34.50;54.80;;;;;;5116963;28;20111;-57
2022/06/22 14:07:50;;;;;;;3.72;2.13;;;34.60;54.80;;;;;;5116535;28;20015;-54
2022/06/22 14:10:25;;;;;;;3.30;2.60;;;34.50;54.30;;;;;;5107122;28;20504;-52